Time;durP1;ratioP1;P1;durP2;ratioP2;P2;SDS_P1;SDS_P2;PMS_P1;PMS_P2;Temp;Humidity;BMP_temperature;BMP_pressure;BME280_temperature;BME280_humidity;BME280_pressure;Samples;Min_cycle;Max_cycle;Signal;HPM_P1;HPM_P2
2024/01/22 00:01:38;;;;;;;14.98;6.25;;;;;;;-5.39;100.00;100780.44;5098213;28;20085;-54
2024/01/22 00:04:06;;;;;;;9.50;5.80;;;;;;;-5.58;100.00;100760.03;5098106;28;20374;-51
2024/01/22 00:06:36;;;;;;;10.07;6.03;;;;;;;-5.51;100.00;100787.53;5097997;28;20109;-51
2024/01/22 00:09:03;;;;;;;15.65;8.25;;;;;;;-5.31;100.00;100804.19;5098283;28;20052;-52
2024/01/22 00:11:30;;;;;;;9.40;4.43;;;;;;;-5.49;100.00;100788.94;5097984;28;20048;-52
2024/01/22 00:13:56;;;;;;;7.18;3.83;;;;;;;-5.47;100.00;100786.84;5098087;28;20055;-51
2024/01/22 00:16:23;;;;;;;10.20;5.70;;;;;;;-5.47;100.00;100775.34;5097852;28;20416;-52
2024/01/22 00:18:50;;;;;;;14.77;6.68;;;;;;;-5.39;100.00;100771.59;5098145;28;20087;-55
2024/01/22 00:21:17;;;;;;;16.67;6.07;;;;;;;-5.47;100.00;100794.06;5097680;28;20048;-51
2024/01/22 00:23:44;;;;;;;6.88;3.20;;;;;;;-5.49;100.00;100780.13;5097975;28;20139;-52
2024/01/22 00:26:12;;;;;;;10.63;5.60;;;;;;;-5.60;100.00;100778.94;5097945;28;20052;-54
2024/01/22 00:28:38;;;;;;;8.57;5.22;;;;;;;-5.71;100.00;100775.16;5097548;28;20427;-54
2024/01/22 00:31:05;;;;;;;16.20;8.10;;;;;;;-5.61;100.00;100784.53;5097957;28;20048;-51
2024/01/22 00:33:31;;;;;;;10.75;5.18;;;;;;;-5.71;100.00;100803.72;5097484;28;20459;-55
2024/01/22 00:35:57;;;;;;;5.85;4.43;;;;;;;-5.64;100.00;100814.34;5097726;28;20048;-53
2024/01/22 00:38:24;;;;;;;12.13;7.25;;;;;;;-5.58;100.00;100806.28;5097503;28;20098;-55
2024/01/22 00:40:51;;;;;;;7.35;4.78;;;;;;;-5.69;100.00;100812.34;5097434;28;20047;-56
2024/01/22 00:43:17;;;;;;;13.98;6.22;;;;;;;-5.62;100.00;100814.97;5097708;28;20431;-50
2024/01/22 00:45:43;;;;;;;10.25;5.50;;;;;;;-5.62;100.00;100796.25;5097794;28;20052;-56
2024/01/22 00:48:10;;;;;;;19.40;5.88;;;;;;;-5.73;100.00;100789.75;5097496;28;20337;-54
2024/01/22 00:50:36;;;;;;;6.47;4.72;;;;;;;-5.77;100.00;100794.72;5097724;28;20044;-53
2024/01/22 00:53:02;;;;;;;13.55;6.75;;;;;;;-5.60;100.00;100804.84;5097510;28;20098;-56
2024/01/22 00:55:29;;;;;;;13.82;6.30;;;;;;;-5.55;100.00;100807.72;5097429;28;20117;-52
2024/01/22 00:57:56;;;;;;;16.08;7.70;;;;;;;-5.52;100.00;100789.38;5097505;28;20432;-54
2024/01/22 01:00:22;;;;;;;10.82;5.25;;;;;;;-5.38;100.00;100778.56;5097106;28;20083;-53
2024/01/22 01:02:50;;;;;;;16.02;6.18;;;;;;;-5.42;100.00;100767.50;5097254;28;20098;-54
2024/01/22 01:05:16;;;;;;;9.50;6.50;;;;;;;-5.05;100.00;100764.88;5097195;28;20079;-52
2024/01/22 01:07:42;;;;;;;13.68;7.03;;;;;;;-5.39;100.00;100735.00;5097272;28;20091;-55
2024/01/22 01:10:09;;;;;;;11.00;7.47;;;;;;;-5.44;100.00;100749.00;5096925;28;20055;-54
2024/01/22 01:12:35;;;;;;;14.23;5.07;;;;;;;-5.51;100.00;100734.06;5097361;28;20056;-55
2024/01/22 01:15:03;;;;;;;24.50;9.40;;;;;;;-5.47;100.00;100737.94;5097148;28;20055;-51
2024/01/22 01:17:29;;;;;;;21.65;7.32;;;;;;;-5.14;100.00;100758.97;5097228;28;20428;-55
2024/01/22 01:19:56;;;;;;;14.02;7.88;;;;;;;-5.40;100.00;100735.19;5096777;28;20062;-53
2024/01/22 01:22:22;;;;;;;15.18;7.22;;;;;;;-5.27;100.00;100719.84;5097034;28;20416;-55
2024/01/22 01:24:48;;;;;;;8.75;5.97;;;;;;;-5.25;100.00;100716.94;5096467;28;20083;-52
2024/01/22 01:27:17;;;;;;;10.90;6.05;;;;;;;-5.07;100.00;100740.19;5096668;28;20088;-55
2024/01/22 01:29:43;;;;;;;18.20;8.60;;;;;;;-5.12;100.00;100710.66;5096842;28;20087;-56
2024/01/22 01:32:10;;;;;;;12.48;6.68;;;;;;;-5.34;100.00;100686.19;5096585;28;20093;-52
2024/01/22 01:34:36;;;;;;;10.30;6.43;;;;;;;-4.94;100.00;100701.78;5097012;28;20079;-55
2024/01/22 01:37:04;;;;;;;15.93;8.88;;;;;;;-5.18;100.00;100666.88;5096525;28;20055;-54
2024/01/22 01:39:30;;;;;;;13.88;6.80;;;;;;;-5.18;100.00;100684.78;5096554;28;20102;-55
2024/01/22 01:41:56;;;;;;;10.55;5.00;;;;;;;-5.41;100.00;100670.22;5096533;28;20131;-57
2024/01/22 01:44:49;;;;;;;19.60;8.45;;;;;;;-5.37;100.00;100705.34;5096463;28;20084;-57
2024/01/22 01:47:16;;;;;;;14.23;7.82;;;;;;;-5.38;100.00;100725.91;5096743;28;20056;-56
2024/01/22 01:49:43;;;;;;;15.95;6.65;;;;;;;-5.28;100.00;100731.56;5096410;28;20139;-53
2024/01/22 01:52:11;;;;;;;8.45;5.43;;;;;;;-5.34;100.00;100719.09;5096874;28;20048;-54
2024/01/22 01:54:39;;;;;;;10.18;5.95;;;;;;;-5.40;100.00;100719.16;5096326;28;20084;-51
2024/01/22 01:57:06;;;;;;;15.35;7.85;;;;;;;-5.15;100.00;100738.63;5096449;28;20055;-52
2024/01/22 01:59:32;;;;;;;15.43;8.05;;;;;;;-5.27;100.00;100738.53;5096387;28;20106;-55
2024/01/22 02:01:59;;;;;;;13.18;6.22;;;;;;;-5.31;100.00;100758.75;5096839;28;20117;-57
2024/01/22 02:04:26;;;;;;;18.00;8.40;;;;;;;-5.29;100.00;100762.03;5096340;28;20098;-52
2024/01/22 02:06:52;;;;;;;8.48;4.93;;;;;;;-5.35;100.00;100736.19;5096625;28;20424;-55
2024/01/22 02:09:18;;;;;;;17.08;7.75;;;;;;;-5.18;100.00;100738.25;5096195;28;20056;-56
2024/01/22 02:11:45;;;;;;;15.10;7.78;;;;;;;-5.36;100.00;100737.22;5096352;28;20390;-54
2024/01/22 02:14:11;;;;;;;19.65;9.00;;;;;;;-5.33;100.00;100739.47;5096123;28;20056;-53
2024/01/22 02:16:37;;;;;;;15.20;7.70;;;;;;;-5.31;100.00;100745.38;5096100;28;20090;-54
2024/01/22 02:19:04;;;;;;;12.57;7.15;;;;;;;-5.36;100.00;100718.50;5096043;28;20059;-55
2024/01/22 02:21:31;;;;;;;17.20;9.07;;;;;;;-5.09;100.00;100718.22;5095934;28;20090;-56
2024/01/22 02:23:58;;;;;;;7.07;5.03;;;;;;;-5.38;100.00;100703.72;5096156;28;20094;-54
2024/01/22 02:26:24;;;;;;;20.95;8.80;;;;;;;-5.43;100.00;100701.72;5096080;28;20091;-56
2024/01/22 02:28:50;;;;;;;8.02;6.30;;;;;;;-5.42;100.00;100718.59;5096335;28;20070;-51
2024/01/22 02:31:17;;;;;;;11.55;6.63;;;;;;;-5.37;100.00;100716.03;5095959;28;20044;-53
2024/01/22 02:33:43;;;;;;;13.80;6.57;;;;;;;-5.31;100.00;100713.31;5096346;28;20052;-55
2024/01/22 02:36:10;;;;;;;13.10;6.82;;;;;;;-5.37;100.00;100721.38;5096029;28;20082;-56
2024/01/22 02:38:36;;;;;;;13.52;8.05;;;;;;;-5.42;100.00;100716.72;5099178;28;20098;-52
2024/01/22 02:41:03;;;;;;;23.45;10.60;;;;;;;-5.32;100.00;100738.41;5099315;28;20074;-56
2024/01/22 02:43:29;;;;;;;16.75;9.95;;;;;;;-5.37;100.00;100732.91;5099221;28;20063;-50
2024/01/22 02:45:56;;;;;;;11.35;6.85;;;;;;;-5.30;100.00;100732.81;5099564;28;20079;-55
2024/01/22 02:48:22;;;;;;;14.10;6.18;;;;;;;-5.30;100.00;100731.00;5099405;28;20052;-53
2024/01/22 02:50:48;;;;;;;17.02;7.93;;;;;;;-5.48;100.00;100721.09;5099111;28;20044;-52
2024/01/22 02:53:14;;;;;;;16.60;7.72;;;;;;;-5.39;100.00;100726.16;5099164;28;20090;-51
2024/01/22 02:55:40;;;;;;;22.90;10.00;;;;;;;-5.20;100.00;100733.13;5099503;28;20079;-56
2024/01/22 02:58:07;;;;;;;17.48;8.80;;;;;;;-5.15;100.00;100722.59;5098952;28;20044;-53
2024/01/22 03:00:33;;;;;;;17.52;9.15;;;;;;;-5.24;100.00;100721.25;5099370;28;20098;-51
2024/01/22 03:02:59;;;;;;;14.18;6.22;;;;;;;-5.34;100.00;100702.25;5098834;28;20470;-53
2024/01/22 03:05:25;;;;;;;25.25;12.05;;;;;;;-5.35;100.00;100714.78;5099484;28;20148;-55
2024/01/22 03:07:51;;;;;;;13.93;7.72;;;;;;;-5.41;100.00;100713.00;5099088;28;20082;-52
2024/01/22 03:10:17;;;;;;;18.48;8.70;;;;;;;-5.32;100.00;100719.69;5098817;28;20048;-51
2024/01/22 03:12:44;;;;;;;9.60;6.07;;;;;;;-5.32;100.00;100719.69;5098856;28;20142;-56
2024/01/22 03:15:11;;;;;;;17.50;9.98;;;;;;;-5.10;100.00;100733.41;5098947;28;20148;-51
2024/01/22 03:17:37;;;;;;;16.13;8.38;;;;;;;-5.26;100.00;100718.81;5099032;28;20432;-54
2024/01/22 03:20:03;;;;;;;15.43;7.78;;;;;;;-5.26;100.00;100720.69;5098747;28;20083;-54
2024/01/22 03:22:29;;;;;;;16.20;8.27;;;;;;;-5.28;100.00;100712.84;5099035;28;20110;-54
2024/01/22 03:24:55;;;;;;;16.67;6.63;;;;;;;-5.20;100.00;100711.72;5098759;28;20088;-53
2024/01/22 03:27:21;;;;;;;15.27;8.60;;;;;;;-5.13;100.00;100709.84;5098947;28;20083;-55
2024/01/22 03:29:48;;;;;;;16.75;9.18;;;;;;;-5.19;100.00;100713.41;5098568;28;20131;-56
2024/01/22 03:32:14;;;;;;;8.95;5.70;;;;;;;-5.22;100.00;100687.91;5099144;28;20094;-55
2024/01/22 03:34:40;;;;;;;15.50;7.22;;;;;;;-5.25;100.00;100672.31;5098548;28;20079;-52
2024/01/22 03:37:06;;;;;;;19.23;10.45;;;;;;;-5.19;100.00;100675.97;5098282;28;20059;-54
2024/01/22 03:39:32;;;;;;;17.83;8.50;;;;;;;-5.24;100.00;100668.59;5098379;28;20177;-54
2024/01/22 03:41:59;;;;;;;8.43;5.97;;;;;;;-5.22;100.00;100666.53;5098292;28;20091;-50
2024/01/22 03:44:25;;;;;;;17.83;10.85;;;;;;;-4.90;100.00;100652.13;5098718;28;20433;-54
2024/01/22 03:46:51;;;;;;;22.48;8.93;;;;;;;-5.08;100.00;100632.41;5098473;28;20117;-56
2024/01/22 03:49:17;;;;;;;16.88;9.55;;;;;;;-5.09;100.00;100616.59;5097950;28;20087;-51
2024/01/22 03:51:43;;;;;;;15.95;9.77;;;;;;;-5.06;100.00;100600.91;5098360;28;20044;-50
2024/01/22 03:54:10;;;;;;;17.77;6.70;;;;;;;-5.32;100.00;100590.56;5098702;28;20443;-53
2024/01/22 03:56:36;;;;;;;21.85;11.55;;;;;;;-5.02;100.00;100614.66;5098338;28;20110;-56
2024/01/22 03:59:02;;;;;;;12.50;6.72;;;;;;;-5.06;100.00;100594.75;5098406;28;20384;-50
2024/01/22 04:01:28;;;;;;;13.68;9.75;;;;;;;-5.22;100.00;100591.66;5098112;28;20156;-56
2024/01/22 04:03:54;;;;;;;23.35;9.80;;;;;;;-5.11;100.00;100594.63;5098545;28;20052;-56
2024/01/22 04:06:21;;;;;;;21.42;7.47;;;;;;;-5.18;100.00;100585.88;5097933;28;20079;-51
2024/01/22 04:08:47;;;;;;;19.90;9.38;;;;;;;-5.13;100.00;100584.16;5097879;28;20059;-50
2024/01/22 04:11:13;;;;;;;22.98;11.15;;;;;;;-4.93;100.00;100607.09;5098204;28;20052;-55
2024/01/22 04:13:40;;;;;;;13.70;7.00;;;;;;;-5.06;100.00;100597.44;5098025;28;20048;-54
2024/01/22 04:16:06;;;;;;;22.13;10.65;;;;;;;-4.93;100.00;100607.94;5098193;28;20109;-51
2024/01/22 04:18:32;;;;;;;13.38;7.50;;;;;;;-5.00;100.00;100602.69;5097623;28;20055;-54
2024/01/22 04:20:58;;;;;;;22.70;11.50;;;;;;;-4.91;100.00;100592.47;5097978;28;20102;-57
2024/01/22 04:23:25;;;;;;;14.85;8.27;;;;;;;-4.96;100.00;100576.31;5097698;28;20144;-52
2024/01/22 04:25:51;;;;;;;12.02;7.03;;;;;;;-5.02;100.00;100564.66;5097963;28;20048;-50
2024/01/22 04:28:17;;;;;;;19.45;10.10;;;;;;;-4.74;100.00;100574.72;5097623;28;20344;-55
2024/01/22 04:30:43;;;;;;;25.98;10.02;;;;;;;-4.98;100.00;100552.44;5097846;28;20052;-55
2024/01/22 04:33:09;;;;;;;20.17;10.02;;;;;;;-4.90;100.00;100556.66;5097516;28;20108;-53
2024/01/22 04:35:35;;;;;;;25.70;10.00;;;;;;;-4.70;100.00;100542.16;5097435;28;20060;-55
2024/01/22 04:38:01;;;;;;;13.27;6.05;;;;;;;-4.84;100.00;100517.47;5097654;28;20110;-50
2024/01/22 04:40:28;;;;;;;24.23;10.23;;;;;;;-4.70;100.00;100520.75;5097953;28;20087;-55
2024/01/22 04:42:54;;;;;;;22.42;10.25;;;;;;;-4.81;100.00;100493.75;5097631;28;20048;-55
2024/01/22 04:45:21;;;;;;;19.17;11.45;;;;;;;-4.99;100.00;100481.28;5097442;28;20083;-51
2024/01/22 04:47:47;;;;;;;12.48;7.63;;;;;;;-4.99;100.00;100488.50;5097422;28;20055;-52
2024/01/22 04:50:13;;;;;;;17.55;9.40;;;;;;;-4.94;100.00;100495.81;5096851;28;20058;-56
2024/01/22 04:52:39;;;;;;;24.20;11.63;;;;;;;-4.68;100.00;100495.38;5097385;28;20120;-54
2024/01/22 04:55:06;;;;;;;19.17;10.85;;;;;;;-4.82;100.00;100473.41;5096952;28;20478;-52
2024/01/22 04:57:33;;;;;;;19.38;10.18;;;;;;;-4.75;100.00;100468.75;5097357;28;20052;-53
2024/01/22 04:59:59;;;;;;;15.18;7.82;;;;;;;-4.81;100.00;100434.88;5096033;28;20048;-55
2024/01/22 05:02:27;;;;;;;15.98;8.95;;;;;;;-4.97;100.00;100411.50;5097380;28;20051;-57
2024/01/22 05:04:56;;;;;;;25.73;11.95;;;;;;;-4.72;100.00;100423.84;5096759;28;20082;-55
2024/01/22 05:07:23;;;;;;;16.30;8.02;;;;;;;-4.83;100.00;100401.38;5096776;28;20048;-57
2024/01/22 05:09:49;;;;;;;17.63;8.57;;;;;;;-5.02;100.00;100385.47;5097006;28;20302;-51
2024/01/22 05:12:15;;;;;;;20.92;9.15;;;;;;;-5.07;100.00;100405.91;5096629;28;20051;-57
2024/01/22 05:14:41;;;;;;;21.25;11.73;;;;;;;-4.62;100.00;100432.91;5096015;28;20415;-53
2024/01/22 05:17:08;;;;;;;23.65;13.52;;;;;;;-4.37;100.00;100405.88;5096786;28;20091;-53
2024/01/22 05:19:34;;;;;;;17.40;8.45;;;;;;;-4.77;100.00;100347.75;5096722;28;20056;-53
2024/01/22 05:22:00;;;;;;;10.27;6.13;;;;;;;-4.81;100.00;100327.88;5096335;28;20097;-63
2024/01/22 05:24:27;;;;;;;23.75;9.90;;;;;;;-4.15;100.00;100349.84;5096748;28;20392;-55
2024/01/22 05:26:53;;;;;;;17.00;8.85;;;;;;;-4.08;100.00;100312.19;5096448;28;20366;-56
2024/01/22 05:29:19;;;;;;;19.98;10.82;;;;;;;-3.80;100.00;100263.94;5096847;28;20066;-53
2024/01/22 05:31:46;;;;;;;19.48;10.40;;;;;;;-3.60;100.00;100203.66;5096298;28;20341;-57
2024/01/22 05:34:12;;;;;;;25.27;11.05;;;;;;;-3.74;100.00;100114.75;5096587;28;20311;-58
2024/01/22 05:36:39;;;;;;;22.40;10.85;;;;;;;-3.62;100.00;100066.41;5096290;28;20044;-56
2024/01/22 05:39:06;;;;;;;21.20;9.93;;;;;;;-3.58;100.00;99997.84;5096530;28;20052;-56
2024/01/22 05:41:32;;;;;;;54.13;20.52;;;;;;;-3.61;100.00;99920.63;5096364;28;20044;-53
2024/01/22 05:43:58;;;;;;;18.10;8.02;;;;;;;-2.52;100.00;99973.03;5096265;28;20148;-61
2024/01/22 05:46:24;;;;;;;30.65;13.15;;;;;;;-0.36;100.00;99962.50;5096235;28;20416;-60
2024/01/22 05:48:51;;;;;;;24.90;10.70;;;;;;;0.89;100.00;99908.44;5096040;28;20052;-57
2024/01/22 05:51:17;;;;;;;56.85;23.13;;;;;;;-2.20;100.00;99343.63;5096087;28;20052;-59
2024/01/22 05:53:43;;;;;;;22.10;10.98;;;;;;;-2.61;100.00;99306.22;5096068;28;20052;-59
2024/01/22 05:56:19;;;;;;;21.23;10.98;;;;;;;-3.58;100.00;99358.13;5096377;28;20396;-56
2024/01/22 05:58:45;;;;;;;16.45;8.90;;;;;;;-3.69;100.00;99441.44;5096069;28;20428;-59
2024/01/22 06:01:19;;;;;;;19.52;9.93;;;;;;;-3.82;100.00;99531.97;5096603;28;20079;-57
2024/01/22 06:03:45;;;;;;;25.20;10.75;;;;;;;-2.98;100.00;99641.91;5095982;28;20059;-57
2024/01/22 06:06:11;;;;;;;20.98;11.07;;;;;;;-3.54;100.00;99629.06;5096110;28;20329;-58
2024/01/22 06:08:37;;;;;;;27.13;11.70;;;;;;;-3.65;100.00;99649.66;5096252;28;20395;-56
2024/01/22 06:11:04;;;;;;;24.95;12.18;;;;;;;-3.62;100.00;99685.84;5097524;28;20116;-54
2024/01/22 06:13:31;;;;;;;18.23;8.32;;;;;;;-3.95;100.00;99698.50;5099665;28;20059;-59
2024/01/22 06:15:57;;;;;;;16.88;8.60;;;;;;;-3.90;100.00;99745.91;5099401;28;20048;-58
2024/01/22 06:18:23;;;;;;;17.25;8.40;;;;;;;-3.98;100.00;99771.31;5099274;28;20158;-55
2024/01/22 06:20:49;;;;;;;15.38;6.80;;;;;;;-3.91;100.00;99750.47;5098761;28;20170;-57
2024/01/22 06:23:16;;;;;;;25.88;9.52;;;;;;;-4.17;100.00;99762.81;5099791;28;20048;-60
2024/01/22 06:25:43;;;;;;;19.48;9.10;;;;;;;-4.09;100.00;99804.44;5099360;28;20048;-58
2024/01/22 06:28:09;;;;;;;28.77;12.07;;;;;;;-4.15;100.00;99832.22;5099692;28;20056;-57
2024/01/22 06:30:35;;;;;;;17.33;9.63;;;;;;;-4.06;100.00;99854.81;5099522;28;20106;-57
2024/01/22 06:33:01;;;;;;;19.23;9.43;;;;;;;-4.26;100.00;99828.63;5099126;28;20052;-54
2024/01/22 06:35:27;;;;;;;29.48;14.90;;;;;;;-3.96;100.00;99854.91;5099199;28;20106;-56
2024/01/22 06:37:53;;;;;;;19.00;8.73;;;;;;;-4.33;100.00;99811.91;5099031;28;20048;-59
2024/01/22 06:40:20;;;;;;;17.42;9.75;;;;;;;-3.99;100.00;99884.06;5099367;28;20052;-59
2024/01/22 06:42:46;;;;;;;15.82;9.50;;;;;;;-4.13;100.00;99870.22;5099028;28;20394;-55
2024/01/22 06:45:12;;;;;;;17.27;9.68;;;;;;;-4.00;100.00;99863.69;5099263;28;20048;-55
2024/01/22 06:47:38;;;;;;;21.83;11.50;;;;;;;-4.07;100.00;99866.56;5098848;28;20048;-58
2024/01/22 06:50:05;;;;;;;12.65;7.70;;;;;;;-4.04;100.00;99874.91;5099078;28;20051;-57
2024/01/22 06:52:31;;;;;;;21.77;10.98;;;;;;;-4.14;100.00;99839.16;5098720;28;20124;-56
2024/01/22 06:54:58;;;;;;;24.98;13.85;;;;;;;-4.05;100.00;99838.47;5098747;28;20116;-55
2024/01/22 06:57:24;;;;;;;22.13;10.23;;;;;;;-4.10;100.00;99835.75;5098537;28;20048;-57
2024/01/22 06:59:52;;;;;;;14.65;8.07;;;;;;;-4.13;100.00;99824.72;5098765;28;20401;-58
2024/01/22 07:02:19;;;;;;;21.30;10.52;;;;;;;-3.74;100.00;99862.88;5098610;28;20113;-53
2024/01/22 07:04:46;;;;;;;24.95;11.43;;;;;;;-3.60;100.00;99841.81;5098888;28;20048;-59
2024/01/22 07:07:13;;;;;;;10.88;6.10;;;;;;;-3.91;100.00;99753.16;5098611;28;20080;-55
2024/01/22 07:09:39;;;;;;;18.33;10.23;;;;;;;-3.67;100.00;99763.53;5098650;28;20111;-56
2024/01/22 07:12:06;;;;;;;17.13;8.65;;;;;;;-3.74;100.00;99723.56;5098652;28;20052;-58
2024/01/22 07:14:33;;;;;;;16.30;9.43;;;;;;;-3.91;100.00;99683.50;5098785;28;20063;-60
2024/01/22 07:17:00;;;;;;;19.70;9.07;;;;;;;-3.75;100.00;99702.38;5098817;28;20048;-59
2024/01/22 07:19:26;;;;;;;21.20;9.27;;;;;;;-3.79;100.00;99700.22;5098304;28;20063;-58
2024/01/22 07:21:52;;;;;;;16.80;8.65;;;;;;;-3.99;100.00;99701.94;5098499;28;20079;-61
2024/01/22 07:24:18;;;;;;;17.35;9.25;;;;;;;-3.85;100.00;99722.66;5097932;28;20336;-52
2024/01/22 07:26:46;;;;;;;19.83;10.88;;;;;;;-3.61;100.00;99746.44;5098062;28;20059;-55
2024/01/22 07:29:12;;;;;;;19.58;8.10;;;;;;;-4.00;100.00;99701.13;5098331;28;20059;-56
2024/01/22 07:31:39;;;;;;;11.98;6.97;;;;;;;-3.87;100.00;99718.63;5098425;28;20117;-57
2024/01/22 07:34:06;;;;;;;12.52;6.50;;;;;;;-3.91;100.00;99712.97;5098479;28;20079;-58
2024/01/22 07:36:32;;;;;;;18.40;8.85;;;;;;;-3.73;100.00;99702.91;5098321;28;20340;-61
2024/01/22 07:38:58;;;;;;;17.25;9.88;;;;;;;-3.74;100.00;99669.97;5098291;28;20056;-59
2024/01/22 07:41:25;;;;;;;19.08;6.68;;;;;;;-4.09;100.00;99652.59;5098050;28;20075;-58
2024/01/22 07:43:51;;;;;;;25.65;10.93;;;;;;;-3.71;100.00;99685.53;5098302;28;20415;-59
2024/01/22 07:46:17;;;;;;;10.85;5.70;;;;;;;-4.06;100.00;99670.03;5098050;28;20091;-57
2024/01/22 07:48:44;;;;;;;18.65;8.80;;;;;;;-4.11;100.00;99700.22;5098296;28;20149;-58
2024/01/22 07:51:10;;;;;;;20.90;10.48;;;;;;;-4.03;100.00;99736.47;5097717;28;20105;-56
2024/01/22 07:53:36;;;;;;;14.38;7.00;;;;;;;-3.82;100.00;99751.63;5098295;28;20470;-55
2024/01/22 07:56:03;;;;;;;20.40;10.02;;;;;;;-3.86;100.00;99734.47;5097746;28;20169;-60
2024/01/22 07:58:29;;;;;;;21.00;10.05;;;;;;;-4.07;100.00;99730.78;5097601;28;20048;-59
2024/01/22 08:00:55;;;;;;;22.40;10.73;;;;;;;-3.92;100.00;99756.09;5097841;28;20116;-56
2024/01/22 08:03:22;;;;;;;8.70;5.45;;;;;;;-4.22;100.00;99762.00;5097739;28;20063;-57
2024/01/22 08:05:49;;;;;;;21.23;11.23;;;;;;;-4.20;100.00;99790.09;5097575;28;20063;-61
2024/01/22 08:08:15;;;;;;;23.00;9.93;;;;;;;-3.98;100.00;99792.75;5097815;28;20126;-57
2024/01/22 08:10:41;;;;;;;18.10;8.88;;;;;;;-3.93;100.00;99783.94;5097768;28;20103;-60
2024/01/22 08:13:07;;;;;;;20.73;11.35;;;;;;;-3.93;100.00;99784.75;5097425;28;20208;-60
2024/01/22 08:15:33;;;;;;;20.63;10.70;;;;;;;-3.74;100.00;99763.75;5097804;28;20385;-57
2024/01/22 08:17:59;;;;;;;22.77;10.35;;;;;;;-3.83;100.00;99715.19;5097509;28;20127;-56
2024/01/22 08:20:26;;;;;;;21.25;10.63;;;;;;;-3.62;100.00;99728.75;5097887;28;20052;-57
2024/01/22 08:22:52;;;;;;;21.95;11.15;;;;;;;-3.80;100.00;99681.69;5097188;28;20059;-52
2024/01/22 08:25:20;;;;;;;23.38;10.50;;;;;;;-3.91;100.00;99688.88;5097230;28;20059;-55
2024/01/22 08:27:46;;;;;;;23.17;9.88;;;;;;;-3.76;100.00;99685.50;5097504;28;20134;-58
2024/01/22 08:30:13;;;;;;;16.40;9.63;;;;;;;-3.91;100.00;99656.72;5097525;28;20090;-53
2024/01/22 08:32:39;;;;;;;27.50;11.25;;;;;;;-3.33;100.00;99680.94;5097132;28;20060;-59
2024/01/22 08:35:06;;;;;;;28.98;15.73;;;;;;;-3.35;100.00;99627.56;5095909;28;20421;-54
2024/01/22 08:37:33;;;;;;;16.73;7.35;;;;;;;-3.53;100.00;99544.94;5097361;28;20419;-61
2024/01/22 08:40:03;;;;;;;18.83;10.40;;;;;;;-3.43;100.00;99528.06;5097035;28;20047;-59
2024/01/22 08:42:29;;;;;;;16.88;9.10;;;;;;;-3.65;100.00;99504.16;5097535;28;20050;-60
2024/01/22 08:44:55;;;;;;;16.25;8.02;;;;;;;-3.62;100.00;99511.69;5097084;28;20109;-56
2024/01/22 08:47:21;;;;;;;17.00;9.90;;;;;;;-3.65;100.00;99502.28;5097398;28;20055;-59
2024/01/22 08:49:47;;;;;;;17.00;8.60;;;;;;;-3.63;100.00;99507.38;5096566;28;20332;-59
2024/01/22 08:52:14;;;;;;;23.15;11.60;;;;;;;-3.60;100.00;99513.03;5097278;28;20047;-63
2024/01/22 08:54:40;;;;;;;18.75;8.95;;;;;;;-3.52;100.00;99506.34;5096981;28;20055;-56
2024/01/22 08:57:07;;;;;;;15.10;9.40;;;;;;;-3.67;100.00;99514.31;5096952;28;20055;-59
2024/01/22 08:59:34;;;;;;;28.17;14.48;;;;;;;-3.68;100.00;99524.25;5096864;28;20380;-61
2024/01/22 09:02:00;;;;;;;26.13;13.82;;;;;;;-3.56;100.00;99535.56;5096843;28;20055;-59
2024/01/22 09:04:44;;;;;;;16.48;9.95;;;;;;;-3.35;100.00;99484.66;5097149;28;20060;-64
2024/01/22 09:07:10;;;;;;;12.32;6.97;;;;;;;-3.60;100.00;99455.94;5096707;28;20048;-60
2024/01/22 09:09:36;;;;;;;23.38;12.00;;;;;;;-3.44;100.00;99456.78;5097029;28;20071;-59
2024/01/22 09:12:03;;;;;;;15.18;8.15;;;;;;;-3.33;100.00;99466.47;5096923;28;20048;-61
2024/01/22 09:14:30;;;;;;;17.88;10.70;;;;;;;-3.56;100.00;99435.59;5097198;28;20134;-59
2024/01/22 09:16:56;;;;;;;15.50;8.60;;;;;;;-3.66;100.00;99422.97;5096603;28;20060;-55
2024/01/22 09:19:22;;;;;;;15.20;7.53;;;;;;;-3.62;100.00;99432.09;5096651;28;20048;-61
2024/01/22 09:21:48;;;;;;;17.63;8.70;;;;;;;-3.47;100.00;99433.97;5096895;28;20052;-60
2024/01/22 09:24:14;;;;;;;13.48;6.97;;;;;;;-3.64;100.00;99441.44;5096676;28;20052;-58
2024/01/22 09:26:40;;;;;;;18.92;9.35;;;;;;;-3.61;100.00;99454.31;5096807;28;20071;-57
2024/01/22 09:29:06;;;;;;;12.02;6.65;;;;;;;-3.61;100.00;99468.53;5096393;28;20060;-61
2024/01/22 09:31:34;;;;;;;22.45;11.35;;;;;;;-3.09;100.00;99477.47;5096845;28;20075;-62
2024/01/22 09:34:00;;;;;;;15.60;9.20;;;;;;;-3.22;100.00;99401.03;5096336;28;20113;-59
2024/01/22 09:36:27;;;;;;;20.00;8.38;;;;;;;-3.34;100.00;99371.00;5096719;28;20125;-57
2024/01/22 09:38:53;;;;;;;20.63;9.57;;;;;;;-3.21;100.00;99359.72;5096220;28;20102;-64
2024/01/22 09:41:19;;;;;;;15.02;9.45;;;;;;;-3.40;100.00;99331.84;5096791;28;20305;-61
2024/01/22 09:43:46;;;;;;;15.02;8.27;;;;;;;-3.37;100.00;99321.41;5096209;28;20052;-63
2024/01/22 09:46:12;;;;;;;22.33;11.95;;;;;;;-2.82;100.00;99310.84;5095986;28;20339;-61
2024/01/22 09:48:40;;;;;;;13.82;8.27;;;;;;;-3.05;100.00;99258.59;5096286;28;20142;-61
2024/01/22 09:51:06;;;;;;;20.17;6.45;;;;;;;-3.26;100.00;99240.97;5095831;28;20139;-59
2024/01/22 09:53:34;;;;;;;13.73;8.18;;;;;;;-3.19;100.00;99249.53;5096005;28;20063;-59
2024/01/22 09:56:02;;;;;;;20.23;10.10;;;;;;;-3.02;100.00;99254.59;5095904;28;20052;-59
2024/01/22 09:58:31;;;;;;;25.38;12.30;;;;;;;-2.93;100.00;99221.56;5096329;28;20052;-60
2024/01/22 10:00:59;;;;;;;16.65;7.70;;;;;;;-2.91;100.00;99189.88;5095962;28;20081;-61
2024/01/22 10:03:30;;;;;;;24.33;10.70;;;;;;;-3.01;100.00;99170.34;5096003;28;20058;-63
2024/01/22 10:05:59;;;;;;;24.17;12.27;;;;;;;-2.78;100.00;99171.59;5096028;28;20417;-61
2024/01/22 10:08:25;;;;;;;26.30;11.63;;;;;;;-2.99;100.00;99160.97;5096248;28;20052;-62
2024/01/22 10:10:51;;;;;;;17.02;9.20;;;;;;;-3.18;100.00;99157.28;5095884;28;20088;-58
2024/01/22 10:13:17;;;;;;;25.50;12.48;;;;;;;-2.88;100.00;99178.59;5095995;28;20044;-61
2024/01/22 10:15:44;;;;;;;23.02;11.57;;;;;;;-3.03;100.00;99159.09;5095708;28;20052;-61
2024/01/22 10:18:12;;;;;;;17.20;7.88;;;;;;;-3.13;100.00;99155.41;5095510;28;20428;-61
2024/01/22 10:20:38;;;;;;;20.40;11.30;;;;;;;-2.82;100.00;99168.66;5095956;28;20143;-60
2024/01/22 10:23:05;;;;;;;17.08;9.23;;;;;;;-3.10;100.00;99129.88;5095645;28;20048;-60
2024/01/22 10:25:32;;;;;;;20.13;10.50;;;;;;;-3.01;100.00;99135.50;5096072;28;20078;-62
2024/01/22 10:28:08;;;;;;;16.85;8.63;;;;;;;-3.01;100.00;99098.72;5095852;28;20063;-61
2024/01/22 10:30:34;;;;;;;21.98;10.27;;;;;;;-2.87;100.00;99123.06;5095630;28;20139;-62
2024/01/22 10:33:12;;;;;;;22.02;11.77;;;;;;;-3.22;100.00;99114.13;5095652;28;20132;-63
2024/01/22 10:35:39;;;;;;;23.05;11.15;;;;;;;-3.06;100.00;99114.88;5095728;28;20044;-63
2024/01/22 10:38:07;;;;;;;17.40;9.48;;;;;;;-3.09;100.00;99104.69;5095446;28;20052;-62
2024/01/22 10:40:33;;;;;;;24.70;11.10;;;;;;;-2.95;100.00;99129.81;5095751;28;20139;-61
2024/01/22 10:42:59;;;;;;;22.40;12.32;;;;;;;-2.90;100.00;99110.19;5095811;28;20054;-63
2024/01/22 10:45:31;;;;;;;15.18;7.68;;;;;;;-3.09;100.00;99107.38;5095818;28;20052;-63
2024/01/22 10:47:57;;;;;;;20.15;11.57;;;;;;;-2.90;100.00;99110.19;5095754;28;20048;-62
2024/01/22 10:50:26;;;;;;;14.15;8.85;;;;;;;-2.85;100.00;99084.16;5095313;28;20155;-61
2024/01/22 10:52:54;;;;;;;20.77;9.75;;;;;;;-2.97;100.00;99097.09;5095809;28;20134;-61
2024/01/22 10:55:20;;;;;;;17.10;10.30;;;;;;;-3.04;100.00;99099.28;5095377;28;20328;-58
2024/01/22 10:57:49;;;;;;;15.90;8.57;;;;;;;-3.13;100.00;99076.84;5096620;28;20143;-62
2024/01/22 11:00:17;;;;;;;22.33;8.75;;;;;;;-3.02;100.00;99089.09;5099163;28;20067;-61
2024/01/22 11:02:49;;;;;;;18.42;9.98;;;;;;;-2.89;100.00;99109.94;5098837;28;20063;-61
2024/01/22 11:05:15;;;;;;;26.85;11.68;;;;;;;-2.92;100.00;99107.81;5098819;28;20087;-61
2024/01/22 11:07:42;;;;;;;21.40;11.00;;;;;;;-2.93;100.00;99094.66;5098835;28;20453;-63
2024/01/22 11:10:11;;;;;;;18.00;8.45;;;;;;;-2.69;100.00;99090.22;5099163;28;20375;-62